TimeEST,TemperatureF,Dew PointF,Humidity,Sea Level PressureIn,VisibilityMPH,Wind Direction,Wind SpeedMPH,Gust SpeedMPH,PrecipitationIn,Events,Conditions,WindDirDegrees,DateUTC
12:53 AM,66.0,62.1,87,30.03,10.0,WSW,9.2,-,N/A,,Mostly Cloudy,240,2013-03-06 05:53:00
1:53 AM,66.9,62.1,84,30.01,10.0,WSW,10.4,-,N/A,,Overcast,240,2013-03-06 06:53:00
2:05 AM,66.9,62.1,84,30.00,10.0,WSW,9.2,-,N/A,,Overcast,240,2013-03-06 07:05:00
2:31 AM,66.9,62.1,84,30.00,10.0,WSW,11.5,-,N/A,,Mostly Cloudy,250,2013-03-06 07:31:00
2:53 AM,66.9,62.1,84,29.99,10.0,WSW,10.4,-,N/A,,Overcast,240,2013-03-06 07:53:00
3:39 AM,66.9,63.0,87,29.98,10.0,West,12.7,-,0.00,,Overcast,260,2013-03-06 08:39:00
3:53 AM,66.9,63.0,87,29.98,9.0,West,9.2,-,0.00,Rain,Light Rain,270,2013-03-06 08:53:00
4:23 AM,66.9,63.0,87,29.97,10.0,West,11.5,-,0.02,,Overcast,270,2013-03-06 09:23:00
4:53 AM,66.9,64.0,90,29.98,10.0,West,10.4,-,0.02,,Overcast,260,2013-03-06 09:53:00
5:23 AM,63.0,57.9,84,30.00,10.0,North,16.1,29.9,0.00,Rain,Light Rain,350,2013-03-06 10:23:00
5:30 AM,62.1,55.9,80,30.00,10.0,North,18.4,25.3,0.00,,Overcast,350,2013-03-06 10:30:00
5:42 AM,62.1,55.9,80,30.01,10.0,North,19.6,27.6,0.00,,Overcast,350,2013-03-06 10:42:00
5:53 AM,62.1,55.9,80,30.03,10.0,North,16.1,25.3,0.00,,Overcast,350,2013-03-06 10:53:00
6:10 AM,59.0,51.1,75,30.03,10.0,NNW,19.6,27.6,N/A,,Overcast,340,2013-03-06 11:10:00
6:24 AM,59.0,50.0,72,30.04,10.0,North,18.4,28.8,N/A,,Overcast,360,2013-03-06 11:24:00
6:53 AM,55.9,43.0,62,30.05,10.0,North,19.6,26.5,N/A,,Scattered Clouds,350,2013-03-06 11:53:00
7:53 AM,55.0,43.0,64,30.10,10.0,North,17.3,26.5,N/A,,Clear,360,2013-03-06 12:53:00
8:53 AM,55.9,43.0,62,30.12,10.0,North,16.1,26.5,N/A,,Clear,360,2013-03-06 13:53:00
9:53 AM,57.9,42.1,56,30.14,10.0,North,16.1,21.9,N/A,,Clear,350,2013-03-06 14:53:00
10:53 AM,59.0,42.1,53,30.13,10.0,North,21.9,26.5,N/A,,Clear,360,2013-03-06 15:53:00
11:53 AM,60.1,35.1,39,30.12,10.0,NNW,15.0,29.9,N/A,,Clear,340,2013-03-06 16:53:00
12:53 PM,61.0,37.9,42,30.09,10.0,NW,13.8,21.9,N/A,,Clear,310,2013-03-06 17:53:00
1:53 PM,61.0,39.0,44,30.07,10.0,NNW,17.3,21.9,N/A,,Clear,340,2013-03-06 18:53:00
2:53 PM,60.1,39.0,46,30.06,10.0,North,17.3,23.0,N/A,,Clear,350,2013-03-06 19:53:00
3:53 PM,59.0,37.9,46,30.06,10.0,NNW,18.4,27.6,N/A,,Clear,330,2013-03-06 20:53:00
4:53 PM,59.0,39.0,48,30.06,10.0,NW,11.5,23.0,N/A,,Clear,320,2013-03-06 21:53:00
5:53 PM,57.9,39.9,51,30.06,10.0,NNW,16.1,23.0,N/A,,Clear,340,2013-03-06 22:53:00
6:53 PM,57.0,39.9,53,30.08,10.0,NNW,12.7,-,N/A,,Clear,330,2013-03-06 23:53:00
7:53 PM,57.0,41.0,55,30.10,10.0,NNW,8.1,-,N/A,,Clear,330,2013-03-07 00:53:00
8:53 PM,55.9,41.0,57,30.11,10.0,NNW,8.1,-,N/A,,Clear,330,2013-03-07 01:53:00
9:53 PM,57.0,42.1,57,30.13,10.0,NNW,6.9,-,N/A,,Clear,340,2013-03-07 02:53:00
10:53 PM,57.0,43.0,59,30.14,10.0,North,6.9,-,N/A,,Clear,350,2013-03-07 03:53:00
11:53 PM,55.9,42.1,60,30.14,10.0,North,8.1,-,N/A,,Clear,360,2013-03-07 04:53:00